createdAt,value
2023-03-23T15:59:34.133Z,19.50
2023-03-23T16:02:02.523Z,19.50
2023-03-23T16:04:32.074Z,19.60
2023-03-23T16:07:04.535Z,19.50
2023-03-23T16:09:32.754Z,19.50
2023-03-23T16:12:01.157Z,19.60
2023-03-23T16:14:29.343Z,19.50
2023-03-23T16:16:58.003Z,19.40
2023-03-23T16:19:26.221Z,19.40
2023-03-23T16:21:54.634Z,19.40
2023-03-23T16:24:24.503Z,19.20
2023-03-23T16:26:52.665Z,19.00
2023-03-23T16:29:34.352Z,18.90
2023-03-23T16:32:09.095Z,18.70
2023-03-23T16:34:38.211Z,18.60
2023-03-23T16:37:07.214Z,18.50
2023-03-23T16:39:36.800Z,18.30
2023-03-23T16:42:05.031Z,18.30
2023-03-23T16:44:33.307Z,18.20
2023-03-23T16:47:01.664Z,18.10
2023-03-23T16:49:30.254Z,18.00
2023-03-23T16:51:58.491Z,17.90
2023-03-23T16:54:26.681Z,17.80
2023-03-23T16:56:56.373Z,17.70
2023-03-23T16:59:24.535Z,17.70
2023-03-23T17:01:52.807Z,17.60
2023-03-23T17:04:21.030Z,17.60
2023-03-23T17:06:51.597Z,17.50
2023-03-23T17:09:19.818Z,17.40
2023-03-23T17:11:48.239Z,17.40
2023-03-23T17:14:17.817Z,17.40
2023-03-23T17:16:46.012Z,17.30
2023-03-23T17:19:15.039Z,17.30
2023-03-23T17:21:44.473Z,17.20
2023-03-23T17:24:12.596Z,17.20
2023-03-23T17:26:40.864Z,17.20
2023-03-23T17:29:09.192Z,17.10
2023-03-23T17:31:38.803Z,17.10
2023-03-23T17:34:07.006Z,17.10
2023-03-23T17:36:35.501Z,17.10
2023-03-23T17:39:04.120Z,17.00
2023-03-23T17:41:32.542Z,17.00
2023-03-23T17:44:00.790Z,16.80
2023-03-23T17:46:29.324Z,16.90
2023-03-23T17:48:58.854Z,16.90
2023-03-23T17:51:27.173Z,16.80
2023-03-23T17:53:55.829Z,16.80
2023-03-23T17:56:24.021Z,16.80
2023-03-23T17:58:52.214Z,16.70
2023-03-23T18:01:20.624Z,16.70
2023-03-23T18:03:48.844Z,16.70
2023-03-23T18:06:18.448Z,16.70
2023-03-23T18:08:46.708Z,16.70
2023-03-23T18:11:14.936Z,16.60
2023-03-23T18:13:43.112Z,16.70
2023-03-23T18:16:11.519Z,16.60
2023-03-23T18:18:39.786Z,16.60
2023-03-23T18:21:10.875Z,16.60
2023-03-23T18:23:49.382Z,16.50
2023-03-23T18:26:24.982Z,16.50
2023-03-23T18:28:53.220Z,16.50
2023-03-23T18:31:21.962Z,16.50
2023-03-23T18:33:53.932Z,16.50
2023-03-23T18:36:24.686Z,16.50
2023-03-23T18:38:56.571Z,16.50
2023-03-23T18:41:25.524Z,16.50
2023-03-23T18:43:55.125Z,16.50
2023-03-23T18:46:24.472Z,16.50
2023-03-23T18:48:52.655Z,16.50
2023-03-23T18:51:21.052Z,16.50
2023-03-23T18:53:49.250Z,16.40
2023-03-23T18:56:19.399Z,16.40
2023-03-23T18:58:47.913Z,16.50
2023-03-23T19:01:18.090Z,16.40
2023-03-23T19:03:47.297Z,16.30
2023-03-23T19:06:18.827Z,16.40
2023-03-23T19:08:49.373Z,16.40
2023-03-23T19:11:20.217Z,16.40
2023-03-23T19:14:00.412Z,16.40
2023-03-23T19:16:31.273Z,16.30
2023-03-23T19:19:01.006Z,16.30
2023-03-23T19:21:31.339Z,16.30
2023-03-23T19:24:00.596Z,16.20
2023-03-23T19:26:36.148Z,16.10
2023-03-23T19:31:37.155Z,16.00
2023-03-23T19:34:05.969Z,16.10
2023-03-23T19:36:34.654Z,16.00
2023-03-23T19:39:04.770Z,16.10
2023-03-23T19:41:35.685Z,16.00
2023-03-23T19:44:04.068Z,16.10
2023-03-23T19:46:32.744Z,16.00
2023-03-23T19:49:02.218Z,16.00
2023-03-23T19:51:31.503Z,16.00
2023-03-23T19:54:00.571Z,16.00
2023-03-23T19:56:30.460Z,16.10
2023-03-23T19:59:00.326Z,16.10
2023-03-23T20:01:29.350Z,16.10
2023-03-23T20:04:00.323Z,16.10
2023-03-23T20:06:29.624Z,16.10
2023-03-23T20:09:00.009Z,16.10
2023-03-23T20:11:29.739Z,16.10
2023-03-23T20:13:59.751Z,16.10
2023-03-23T20:16:27.980Z,16.10
2023-03-23T20:18:59.976Z,16.10
2023-03-23T20:21:29.270Z,16.00
2023-03-23T20:23:59.046Z,16.10
2023-03-23T20:26:29.763Z,16.10
2023-03-23T20:28:59.751Z,16.10
2023-03-23T20:31:29.999Z,16.00
2023-03-23T20:34:01.952Z,16.00
2023-03-23T20:36:34.474Z,16.00
2023-03-23T20:39:05.573Z,16.00
2023-03-23T20:41:35.899Z,15.90
2023-03-23T20:44:06.876Z,15.90
2023-03-23T20:46:35.968Z,15.90
2023-03-23T20:49:05.332Z,15.90
2023-03-23T20:51:34.087Z,15.90
2023-03-23T20:54:03.467Z,15.90
2023-03-23T20:56:31.730Z,15.90
2023-03-23T20:58:59.934Z,15.80
2023-03-23T21:01:29.602Z,15.80
2023-03-23T21:03:57.901Z,15.80
2023-03-23T21:06:28.397Z,15.80
2023-03-23T21:08:58.025Z,15.90
2023-03-23T21:11:27.857Z,15.80
2023-03-23T21:13:56.082Z,15.80
2023-03-23T21:16:25.455Z,15.70
2023-03-23T21:18:55.794Z,15.70
2023-03-23T21:21:27.164Z,15.70
2023-03-23T21:23:57.428Z,15.70
2023-03-23T21:26:28.368Z,15.70
2023-03-23T21:28:59.602Z,15.70
2023-03-23T21:31:30.676Z,15.70
2023-03-23T21:34:12.961Z,15.70
2023-03-23T21:36:42.864Z,15.70
2023-03-23T21:39:11.734Z,15.70
2023-03-23T21:41:41.828Z,15.70
2023-03-23T21:44:11.928Z,15.70
2023-03-23T21:46:41.925Z,15.80
2023-03-23T21:49:14.097Z,15.80
2023-03-23T21:51:43.605Z,15.80
2023-03-23T21:54:12.490Z,15.80
2023-03-23T21:56:41.067Z,15.80
2023-03-23T21:59:09.235Z,15.80
2023-03-23T22:01:37.859Z,15.80
2023-03-23T22:04:06.939Z,15.80
2023-03-23T22:06:37.178Z,15.80
2023-03-23T22:09:06.182Z,15.70
2023-03-23T22:11:34.677Z,15.70
2023-03-23T22:14:03.555Z,15.70
2023-03-23T22:16:32.421Z,15.70
2023-03-23T22:19:02.043Z,15.70
2023-03-23T22:21:30.985Z,15.70
2023-03-23T22:24:01.873Z,15.70
2023-03-23T22:26:31.217Z,15.60
2023-03-23T22:29:01.321Z,15.60
2023-03-23T22:31:34.920Z,15.60
2023-03-23T22:34:03.651Z,15.60
2023-03-23T22:36:33.161Z,15.50
2023-03-23T22:39:03.905Z,15.50
2023-03-23T22:41:33.972Z,15.40
2023-03-23T22:44:02.186Z,15.50
2023-03-23T22:46:30.488Z,15.50
2023-03-23T22:48:58.770Z,15.40
2023-03-23T22:51:26.982Z,15.40
2023-03-23T22:53:56.961Z,15.40
2023-03-23T22:56:26.671Z,15.40
2023-03-23T22:58:55.029Z,15.40
2023-03-23T23:01:24.436Z,15.40
2023-03-23T23:03:52.735Z,15.40
2023-03-23T23:06:21.954Z,15.40
2023-03-23T23:08:52.516Z,15.40
2023-03-23T23:11:22.801Z,15.40
2023-03-23T23:13:53.023Z,15.40
2023-03-23T23:16:24.112Z,15.40
2023-03-23T23:18:52.482Z,15.40
2023-03-23T23:21:22.533Z,15.40
2023-03-23T23:23:51.717Z,15.40
2023-03-23T23:26:20.803Z,15.40
2023-03-23T23:28:49.849Z,15.40
2023-03-23T23:31:26.210Z,15.40
2023-03-23T23:33:56.268Z,15.40
2023-03-23T23:36:28.220Z,15.40
2023-03-23T23:38:57.341Z,15.40
2023-03-23T23:41:26.028Z,15.40
2023-03-23T23:43:54.229Z,15.50
2023-03-23T23:46:24.161Z,15.50
2023-03-23T23:48:52.906Z,15.40
2023-03-23T23:51:21.638Z,15.40
2023-03-23T23:53:53.309Z,15.40
2023-03-23T23:56:22.822Z,15.40
2023-03-23T23:58:51.000Z,15.40
